createdAt,value
2022-11-30T00:02:19.029Z,464.60
2022-11-30T00:04:46.043Z,461.45
2022-11-30T00:07:12.692Z,449.38
2022-11-30T00:09:39.080Z,442.25
2022-11-30T00:12:05.415Z,439.30
2022-11-30T00:14:32.740Z,437.02
2022-11-30T00:16:59.224Z,428.98
2022-11-30T00:19:25.632Z,419.73
2022-11-30T00:21:52.068Z,419.15
2022-11-30T00:24:18.503Z,411.15
2022-11-30T00:26:44.912Z,409.20
2022-11-30T00:29:11.212Z,403.08
2022-11-30T00:31:38.106Z,398.35
2022-11-30T00:34:04.388Z,394.55
2022-11-30T00:36:30.880Z,393.48
2022-11-30T00:38:57.297Z,379.13
2022-11-30T00:41:23.634Z,393.20
2022-11-30T00:43:50.100Z,380.83
2022-11-30T00:46:16.607Z,369.70
2022-11-30T00:48:43.019Z,364.70
2022-11-30T00:51:09.372Z,361.88
2022-11-30T00:53:35.727Z,350.30
2022-11-30T00:56:02.156Z,349.35
2022-11-30T00:58:28.532Z,342.75
2022-11-30T01:00:54.970Z,344.30
2022-11-30T01:03:21.336Z,338.33
2022-11-30T01:05:47.802Z,335.00
2022-11-30T01:08:14.071Z,332.10
2022-11-30T01:10:40.586Z,321.00
2022-11-30T01:13:06.890Z,327.75
2022-11-30T01:15:33.231Z,316.17
2022-11-30T01:17:59.596Z,313.23
2022-11-30T01:20:26.057Z,301.60
2022-11-30T01:22:52.585Z,304.50
2022-11-30T01:25:19.101Z,299.65
2022-11-30T01:27:45.657Z,294.17
2022-11-30T01:30:12.125Z,287.88
2022-11-30T01:32:38.573Z,286.25
2022-11-30T01:35:04.892Z,285.85
2022-11-30T01:37:31.222Z,285.27
2022-11-30T01:39:57.792Z,277.42
2022-11-30T01:42:24.201Z,271.35
2022-11-30T01:44:50.477Z,269.58
2022-11-30T01:47:16.766Z,266.40
2022-11-30T01:49:43.186Z,257.63
2022-11-30T01:52:09.565Z,258.05
2022-11-30T01:54:36.163Z,252.68
2022-11-30T01:57:02.719Z,258.13
2022-11-30T01:59:29.118Z,245.10
2022-11-30T02:01:55.434Z,236.20
2022-11-30T02:04:22.670Z,243.95
2022-11-30T02:06:49.260Z,236.23
2022-11-30T02:09:15.717Z,230.68
2022-11-30T02:11:42.119Z,227.45
2022-11-30T02:14:08.436Z,225.10
2022-11-30T02:16:35.095Z,218.85
2022-11-30T02:19:01.702Z,223.18
2022-11-30T02:21:28.230Z,213.85
2022-11-30T02:23:54.579Z,215.48
2022-11-30T02:26:21.192Z,207.60
2022-11-30T02:28:47.532Z,208.68
2022-11-30T02:31:13.911Z,202.23
2022-11-30T02:33:40.275Z,199.27
2022-11-30T02:36:06.725Z,192.45
2022-11-30T02:38:33.099Z,187.77
2022-11-30T02:40:59.515Z,193.80
2022-11-30T02:43:25.797Z,186.18
2022-11-30T02:45:52.205Z,181.32
2022-11-30T02:48:18.621Z,180.98
2022-11-30T02:50:45.046Z,179.43
2022-11-30T02:53:11.394Z,174.88
2022-11-30T02:55:37.903Z,175.32
2022-11-30T02:58:04.260Z,167.52
2022-11-30T03:00:30.638Z,164.68
2022-11-30T03:02:57.220Z,165.95
2022-11-30T03:05:23.567Z,159.73
2022-11-30T03:07:49.985Z,162.88
2022-11-30T03:10:16.351Z,158.52
2022-11-30T03:12:42.734Z,158.63
2022-11-30T03:15:09.070Z,151.20
2022-11-30T03:17:35.449Z,151.68
2022-11-30T03:20:01.865Z,146.60
2022-11-30T03:22:28.149Z,147.23
2022-11-30T03:24:54.703Z,148.45
2022-11-30T03:27:21.050Z,144.52
2022-11-30T03:29:47.380Z,142.77
2022-11-30T03:32:13.710Z,140.77
2022-11-30T03:34:40.172Z,139.55
2022-11-30T03:37:06.708Z,137.10
2022-11-30T03:39:33.201Z,132.35
2022-11-30T03:41:59.528Z,132.50
2022-11-30T03:44:25.858Z,130.65
2022-11-30T03:46:52.310Z,129.43
2022-11-30T03:49:18.849Z,122.88
2022-11-30T03:51:45.146Z,123.95
2022-11-30T03:54:11.540Z,120.85
2022-11-30T03:56:37.864Z,121.97
2022-11-30T03:59:04.161Z,121.45
2022-11-30T04:01:30.625Z,116.40
2022-11-30T04:03:57.019Z,115.03
2022-11-30T04:06:23.359Z,116.82
2022-11-30T04:08:49.701Z,113.68
2022-11-30T04:11:16.011Z,111.35
2022-11-30T04:13:42.395Z,110.03
2022-11-30T04:16:08.777Z,110.40
2022-11-30T04:18:35.132Z,110.15
2022-11-30T04:21:01.516Z,107.10
2022-11-30T04:23:27.859Z,107.57
2022-11-30T04:25:54.410Z,105.05
2022-11-30T04:28:20.789Z,105.18
2022-11-30T04:30:47.256Z,101.32
2022-11-30T04:33:13.604Z,101.55
2022-11-30T04:35:39.908Z,101.38
2022-11-30T04:38:06.216Z,99.30
2022-11-30T04:40:32.656Z,97.00
2022-11-30T04:42:59.269Z,96.47
2022-11-30T04:45:25.812Z,97.22
2022-11-30T04:47:52.200Z,95.97
2022-11-30T04:50:18.586Z,98.15
2022-11-30T04:52:44.911Z,93.78
2022-11-30T04:55:11.285Z,93.43
2022-11-30T04:57:37.584Z,89.70
2022-11-30T05:00:04.148Z,88.05
2022-11-30T05:02:30.551Z,88.82
2022-11-30T05:04:56.917Z,91.30
2022-11-30T05:07:23.249Z,86.07
2022-11-30T05:09:49.678Z,85.55
2022-11-30T05:12:16.055Z,86.50
2022-11-30T05:14:42.502Z,82.97
2022-11-30T05:17:08.910Z,84.65
2022-11-30T05:19:35.222Z,80.70
2022-11-30T05:22:01.544Z,82.07
2022-11-30T05:24:27.957Z,82.15
2022-11-30T05:26:54.368Z,78.50
2022-11-30T05:29:20.880Z,77.95
2022-11-30T05:31:47.281Z,77.72
2022-11-30T05:34:13.577Z,79.15
2022-11-30T05:36:39.926Z,75.13
2022-11-30T05:39:06.461Z,77.72
2022-11-30T05:41:32.865Z,74.95
2022-11-30T05:43:59.203Z,74.55
2022-11-30T05:46:25.622Z,73.70
2022-11-30T05:48:52.344Z,75.80
2022-11-30T05:51:18.687Z,74.28
2022-11-30T05:53:45.037Z,69.90
2022-11-30T05:56:11.372Z,70.43
2022-11-30T05:58:37.685Z,72.25
2022-11-30T06:01:04.122Z,70.72
2022-11-30T06:03:30.550Z,68.38
2022-11-30T06:05:57.003Z,69.43
2022-11-30T06:08:23.417Z,68.32
2022-11-30T06:10:49.777Z,64.75
2022-11-30T06:13:16.233Z,69.65
2022-11-30T06:15:42.630Z,66.03
2022-11-30T06:18:09.049Z,66.78
2022-11-30T06:20:35.365Z,63.97
2022-11-30T06:23:01.682Z,65.97
2022-11-30T06:25:28.208Z,64.60
2022-11-30T06:27:54.558Z,64.50
2022-11-30T06:30:21.031Z,61.60
2022-11-30T06:32:47.454Z,65.10
2022-11-30T06:35:13.791Z,61.75
2022-11-30T06:37:40.216Z,61.75
2022-11-30T06:40:07.723Z,61.05
2022-11-30T06:42:34.615Z,62.65
2022-11-30T06:45:01.001Z,60.20
2022-11-30T06:47:27.415Z,61.78
2022-11-30T06:49:54.036Z,61.88
2022-11-30T06:52:20.374Z,59.72
2022-11-30T06:54:47.005Z,60.67
2022-11-30T06:57:13.782Z,58.53
2022-11-30T06:59:40.196Z,60.05
2022-11-30T07:02:10.745Z,57.40
2022-11-30T07:04:39.351Z,57.42
2022-11-30T07:07:05.703Z,58.83
2022-11-30T07:09:32.209Z,55.85
2022-11-30T07:11:58.497Z,57.78
2022-11-30T07:14:24.855Z,55.85
2022-11-30T07:16:51.216Z,56.42
2022-11-30T07:19:17.648Z,56.58
2022-11-30T07:21:43.971Z,55.33
2022-11-30T07:24:10.321Z,55.95
2022-11-30T07:26:36.681Z,57.38
2022-11-30T07:29:03.116Z,55.13
2022-11-30T07:31:29.416Z,53.63
2022-11-30T07:33:55.735Z,55.20
2022-11-30T07:36:22.076Z,55.22
2022-11-30T07:38:48.521Z,56.42
2022-11-30T07:41:14.878Z,55.63
2022-11-30T07:43:41.236Z,53.58
2022-11-30T07:46:07.765Z,54.40
2022-11-30T07:48:34.273Z,53.03
2022-11-30T07:51:00.681Z,54.85
2022-11-30T07:53:27.019Z,53.15
2022-11-30T07:55:56.959Z,54.22
2022-11-30T07:58:23.449Z,50.15
2022-11-30T08:00:49.971Z,52.33
2022-11-30T08:03:16.376Z,52.35
2022-11-30T08:05:42.672Z,53.25
2022-11-30T08:08:09.050Z,52.00
2022-11-30T08:10:35.349Z,49.75
2022-11-30T08:13:01.702Z,51.60
2022-11-30T08:15:32.551Z,52.25
2022-11-30T08:17:59.885Z,49.55
2022-11-30T08:20:26.389Z,50.30
2022-11-30T08:22:52.792Z,49.70
2022-11-30T08:25:19.166Z,50.53
2022-11-30T08:27:45.846Z,48.60
2022-11-30T08:30:12.121Z,48.95
2022-11-30T08:32:38.693Z,51.90
2022-11-30T08:35:05.191Z,49.25
2022-11-30T08:37:31.812Z,49.03
2022-11-30T08:39:58.646Z,47.95
2022-11-30T08:42:24.933Z,48.97
2022-11-30T08:44:51.258Z,48.97
2022-11-30T08:47:18.090Z,47.83
2022-11-30T08:49:44.576Z,50.95
2022-11-30T08:52:18.775Z,48.15
2022-11-30T08:54:46.143Z,46.53
2022-11-30T08:57:12.995Z,49.80
2022-11-30T08:59:39.480Z,46.95
2022-11-30T09:02:06.242Z,47.85
2022-11-30T09:04:32.681Z,47.25
2022-11-30T09:06:59.384Z,47.15
2022-11-30T09:09:25.910Z,47.25
2022-11-30T09:11:52.316Z,46.83
2022-11-30T09:14:18.673Z,46.72
2022-11-30T09:16:45.112Z,45.35
2022-11-30T09:19:11.435Z,45.63
2022-11-30T09:21:38.084Z,47.22
2022-11-30T09:24:04.413Z,48.75
2022-11-30T09:26:30.757Z,47.53
2022-11-30T09:28:57.065Z,44.55
2022-11-30T09:31:23.390Z,45.40
2022-11-30T09:33:49.728Z,45.33
2022-11-30T09:36:15.996Z,45.22
2022-11-30T09:38:42.273Z,46.88
2022-11-30T09:41:08.637Z,45.45
2022-11-30T09:43:35.025Z,46.55
2022-11-30T09:46:01.441Z,45.58
2022-11-30T09:48:27.873Z,46.28
2022-11-30T09:50:54.342Z,45.10
2022-11-30T09:53:24.669Z,44.78
2022-11-30T09:55:55.472Z,44.83
2022-11-30T09:58:22.183Z,45.65
2022-11-30T10:00:48.552Z,45.03
2022-11-30T10:03:14.973Z,43.90
2022-11-30T10:05:41.357Z,45.97
2022-11-30T10:08:07.770Z,45.53
2022-11-30T10:10:34.329Z,43.92
2022-11-30T10:13:00.800Z,44.33
2022-11-30T10:15:27.371Z,43.00
2022-11-30T10:17:54.049Z,43.38
2022-11-30T10:20:20.410Z,44.33
2022-11-30T10:22:46.827Z,43.78
2022-11-30T10:25:13.212Z,45.05
2022-11-30T10:27:39.565Z,42.90
2022-11-30T10:30:05.861Z,43.63
2022-11-30T10:32:32.179Z,44.58
2022-11-30T10:34:58.594Z,43.80
2022-11-30T10:37:25.009Z,43.03
2022-11-30T10:39:51.397Z,43.72
2022-11-30T10:42:17.936Z,44.13
2022-11-30T10:44:44.550Z,44.45
2022-11-30T10:47:11.003Z,42.75
2022-11-30T10:49:37.291Z,45.20
2022-11-30T10:52:03.584Z,45.45
2022-11-30T10:54:30.205Z,46.92
2022-11-30T10:56:56.536Z,43.85
2022-11-30T10:59:22.862Z,45.78
2022-11-30T11:01:49.224Z,46.40
2022-11-30T11:04:15.688Z,44.08
2022-11-30T11:06:42.202Z,46.97
2022-11-30T11:09:08.773Z,45.05
2022-11-30T11:11:35.127Z,43.47
2022-11-30T11:14:01.474Z,44.08
2022-11-30T11:16:27.828Z,44.63
2022-11-30T11:18:54.281Z,45.40
2022-11-30T11:21:20.577Z,46.28
2022-11-30T11:23:46.908Z,47.10
2022-11-30T11:26:13.284Z,44.95
2022-11-30T11:28:39.593Z,43.75
2022-11-30T11:31:05.894Z,47.67
2022-11-30T11:33:32.303Z,46.42
2022-11-30T11:35:58.696Z,45.00
2022-11-30T11:38:24.947Z,46.65
2022-11-30T11:40:51.274Z,45.15
2022-11-30T11:43:17.748Z,44.13
2022-11-30T11:45:44.146Z,46.88
2022-11-30T11:48:12.737Z,45.13
2022-11-30T11:53:25.751Z,45.33
2022-11-30T11:56:00.697Z,44.13
2022-11-30T11:58:27.046Z,44.58
2022-11-30T12:01:05.762Z,44.53
2022-11-30T12:03:39.988Z,45.38
2022-11-30T12:06:06.537Z,44.95
2022-11-30T12:08:33.113Z,46.40
2022-11-30T12:10:59.480Z,44.58
2022-11-30T12:13:25.794Z,45.75
2022-11-30T12:15:52.168Z,44.67
2022-11-30T12:18:23.775Z,46.22
2022-11-30T12:20:50.634Z,45.03
2022-11-30T12:23:16.999Z,46.80
2022-11-30T12:25:43.349Z,46.13
2022-11-30T12:28:09.899Z,43.67
2022-11-30T12:30:36.347Z,45.30
2022-11-30T12:33:02.887Z,44.40
2022-11-30T12:35:29.333Z,45.60
2022-11-30T12:37:55.689Z,45.55
2022-11-30T12:40:21.963Z,46.97
2022-11-30T12:42:48.216Z,43.53
2022-11-30T12:45:14.529Z,45.42
2022-11-30T12:47:40.937Z,44.80
2022-11-30T12:50:07.244Z,45.60
2022-11-30T12:52:33.645Z,46.28
2022-11-30T12:54:59.920Z,44.95
2022-11-30T12:57:26.209Z,47.00
2022-11-30T12:59:52.642Z,45.15
2022-11-30T13:02:19.074Z,46.28
2022-11-30T13:04:45.663Z,47.90
2022-11-30T13:07:12.319Z,46.15
2022-11-30T13:09:38.609Z,45.88
2022-11-30T13:12:04.954Z,45.45
2022-11-30T13:14:31.291Z,46.28
2022-11-30T13:16:57.785Z,46.40
2022-11-30T13:19:24.116Z,46.03
2022-11-30T13:21:50.476Z,46.78
2022-11-30T13:24:16.834Z,47.42
2022-11-30T13:26:43.175Z,106.82
2022-11-30T13:29:09.564Z,108.75
2022-11-30T13:31:36.106Z,108.60
2022-11-30T13:34:02.509Z,122.20
2022-11-30T13:36:28.896Z,119.95
2022-11-30T13:38:55.349Z,117.65
2022-11-30T13:41:21.854Z,117.68
2022-11-30T13:43:48.345Z,120.97
2022-11-30T13:46:14.936Z,118.35
2022-11-30T13:48:41.363Z,116.30
2022-11-30T13:51:07.736Z,114.22
2022-11-30T13:53:34.106Z,114.95
2022-11-30T13:56:00.741Z,114.63
2022-11-30T13:58:27.163Z,112.95
2022-11-30T14:00:53.656Z,111.80
2022-11-30T14:03:20.164Z,111.90
2022-11-30T14:05:46.907Z,108.32
2022-11-30T14:08:13.337Z,108.53
2022-11-30T14:10:39.798Z,107.35
2022-11-30T14:13:06.310Z,106.63
2022-11-30T14:15:32.690Z,105.43
2022-11-30T14:17:58.998Z,102.55
2022-11-30T14:20:25.444Z,100.38
2022-11-30T14:22:51.760Z,104.05
2022-11-30T14:25:18.025Z,100.13
2022-11-30T14:27:44.369Z,97.78
2022-11-30T14:30:10.878Z,98.93
2022-11-30T14:32:37.177Z,95.07
2022-11-30T14:35:03.577Z,92.43
2022-11-30T14:37:29.835Z,93.85
2022-11-30T14:39:56.230Z,89.35
2022-11-30T14:42:22.560Z,91.22
2022-11-30T14:44:49.061Z,90.30
2022-11-30T14:47:15.477Z,89.80
2022-11-30T14:49:42.387Z,86.13
2022-11-30T14:52:08.760Z,84.50
2022-11-30T14:54:35.153Z,84.38
2022-11-30T14:57:01.505Z,81.18
2022-11-30T14:59:27.849Z,82.10
2022-11-30T15:01:54.488Z,79.03
2022-11-30T15:04:21.021Z,79.07
2022-11-30T15:06:47.300Z,77.35
2022-11-30T15:09:13.645Z,74.28
2022-11-30T15:11:39.941Z,76.43
2022-11-30T15:14:06.342Z,75.53
2022-11-30T15:16:32.733Z,72.65
2022-11-30T15:18:59.128Z,70.93
2022-11-30T15:21:25.649Z,70.88
2022-11-30T15:23:52.039Z,70.97
2022-11-30T15:26:18.536Z,71.18
2022-11-30T15:28:44.871Z,71.65
2022-11-30T15:31:11.200Z,70.47
2022-11-30T15:33:37.589Z,70.60
2022-11-30T15:36:32.490Z,70.22
2022-11-30T15:38:50.664Z,68.13
2022-11-30T15:41:17.165Z,69.18
2022-11-30T15:43:43.639Z,68.40
2022-11-30T15:46:10.113Z,67.80
2022-11-30T15:48:36.477Z,67.95
2022-11-30T15:51:02.815Z,66.95
2022-11-30T15:53:29.140Z,64.97
2022-11-30T15:55:55.443Z,64.15
2022-11-30T15:58:21.742Z,64.15
2022-11-30T16:00:48.124Z,63.72
2022-11-30T16:03:14.631Z,63.22
2022-11-30T16:05:41.106Z,61.00
2022-11-30T16:08:07.910Z,62.72
2022-11-30T16:10:34.236Z,61.00
2022-11-30T16:13:00.541Z,59.38
2022-11-30T16:15:26.853Z,59.80
2022-11-30T16:17:53.230Z,58.80
2022-11-30T16:20:19.604Z,59.65
2022-11-30T16:22:45.953Z,57.03
2022-11-30T16:25:12.455Z,55.83
2022-11-30T16:27:38.808Z,55.03
2022-11-30T16:30:05.054Z,56.88
2022-11-30T16:32:31.347Z,55.47
2022-11-30T16:34:57.665Z,53.75
2022-11-30T16:37:23.941Z,55.20
2022-11-30T16:39:50.613Z,55.03
2022-11-30T16:42:17.158Z,53.00
2022-11-30T16:44:43.499Z,54.88
2022-11-30T16:47:10.365Z,52.90
2022-11-30T16:49:36.714Z,51.75
2022-11-30T16:52:03.834Z,54.38
2022-11-30T16:54:30.481Z,53.08
2022-11-30T16:56:56.780Z,53.80
2022-11-30T16:59:23.095Z,52.47
2022-11-30T17:01:49.474Z,51.33
2022-11-30T17:04:15.849Z,50.97
2022-11-30T17:06:42.127Z,51.25
2022-11-30T17:09:08.436Z,51.38
2022-11-30T17:11:34.794Z,51.38
2022-11-30T17:14:01.310Z,52.05
2022-11-30T17:16:27.808Z,49.03
2022-11-30T17:18:54.365Z,49.25
2022-11-30T17:21:20.745Z,49.17
2022-11-30T17:23:47.104Z,51.28
2022-11-30T17:26:13.449Z,48.60
2022-11-30T17:28:39.799Z,49.10
2022-11-30T17:31:06.316Z,47.75
2022-11-30T17:33:32.630Z,48.03
2022-11-30T17:35:58.945Z,48.00
2022-11-30T17:38:25.259Z,47.58
2022-11-30T17:40:51.520Z,47.92
2022-11-30T17:43:17.850Z,47.75
2022-11-30T17:45:44.220Z,47.03
2022-11-30T17:48:10.575Z,44.63
2022-11-30T17:50:36.972Z,45.38
2022-11-30T17:53:03.349Z,45.75
2022-11-30T17:55:29.703Z,42.75
2022-11-30T17:57:56.061Z,46.17
2022-11-30T18:00:22.488Z,44.72
2022-11-30T18:02:48.935Z,43.63
2022-11-30T18:05:15.355Z,44.08
2022-11-30T18:07:42.061Z,43.22
2022-11-30T18:10:08.466Z,42.13
2022-11-30T18:12:34.865Z,43.35
2022-11-30T18:15:01.307Z,42.05
2022-11-30T18:17:27.644Z,44.97
2022-11-30T18:19:54.299Z,42.55
2022-11-30T18:22:20.752Z,42.17
2022-11-30T18:24:47.340Z,42.13
2022-11-30T18:27:13.944Z,42.75
2022-11-30T18:29:40.378Z,42.15
2022-11-30T18:32:06.836Z,41.33
2022-11-30T18:34:33.384Z,41.13
2022-11-30T18:36:59.772Z,40.97
2022-11-30T18:39:26.165Z,42.10
2022-11-30T18:41:52.489Z,41.78
2022-11-30T18:44:18.807Z,42.25
2022-11-30T18:46:45.180Z,41.25
2022-11-30T18:49:11.868Z,42.65
2022-11-30T18:51:38.269Z,41.70
2022-11-30T18:54:04.617Z,39.85
2022-11-30T18:56:30.911Z,40.78
2022-11-30T18:58:57.381Z,39.42
2022-11-30T19:01:23.886Z,39.40
2022-11-30T19:03:50.246Z,40.63
2022-11-30T19:06:16.666Z,37.63
2022-11-30T19:08:42.992Z,40.45
2022-11-30T19:11:09.264Z,38.92
2022-11-30T19:13:35.554Z,40.40
2022-11-30T19:16:01.928Z,38.75
2022-11-30T19:18:28.299Z,40.70
2022-11-30T19:20:54.632Z,39.60
2022-11-30T19:23:20.953Z,38.47
2022-11-30T19:25:47.340Z,38.05
2022-11-30T19:28:14.037Z,38.40
2022-11-30T19:30:40.577Z,39.88
2022-11-30T19:33:06.913Z,35.97
2022-11-30T19:35:33.406Z,37.05
2022-11-30T19:37:59.718Z,37.85
2022-11-30T19:40:26.050Z,37.10
2022-11-30T19:42:52.479Z,38.35
2022-11-30T19:45:18.875Z,36.85
2022-11-30T19:47:45.164Z,37.60
2022-11-30T19:50:11.599Z,36.97
2022-11-30T19:52:38.067Z,36.88
2022-11-30T19:55:04.541Z,37.70
2022-11-30T19:57:30.871Z,36.63
2022-11-30T19:59:57.196Z,36.53
2022-11-30T20:02:23.561Z,35.95
2022-11-30T20:04:49.995Z,38.17
2022-11-30T20:07:16.433Z,36.92
2022-11-30T20:09:42.789Z,36.45
2022-11-30T20:12:09.176Z,36.65
2022-11-30T20:14:35.551Z,36.05
2022-11-30T20:17:01.902Z,35.22
2022-11-30T20:19:28.475Z,35.78
2022-11-30T20:21:54.727Z,34.90
2022-11-30T20:24:21.032Z,37.10
2022-11-30T20:26:47.365Z,35.78
2022-11-30T20:29:13.898Z,34.83
2022-11-30T20:31:40.176Z,38.05
2022-11-30T20:34:06.479Z,36.42
2022-11-30T20:36:32.796Z,34.47
2022-11-30T20:38:59.126Z,35.53
2022-11-30T20:41:25.657Z,34.95
2022-11-30T20:43:52.315Z,35.33
2022-11-30T20:46:18.768Z,35.78
2022-11-30T20:48:45.751Z,36.03
2022-11-30T20:51:30.301Z,35.63
2022-11-30T20:53:57.664Z,34.42
2022-11-30T20:56:24.153Z,34.53
2022-11-30T20:58:50.606Z,35.70
2022-11-30T21:01:16.981Z,34.38
2022-11-30T21:03:43.371Z,35.15
2022-11-30T21:06:09.696Z,33.38
2022-11-30T21:08:36.067Z,35.95
2022-11-30T21:11:02.830Z,34.30
2022-11-30T21:13:29.193Z,33.63
2022-11-30T21:15:55.627Z,34.40
2022-11-30T21:18:22.088Z,34.72
2022-11-30T21:20:48.388Z,35.10
2022-11-30T21:23:14.744Z,35.67
2022-11-30T21:25:41.115Z,33.60
2022-11-30T21:28:07.841Z,35.03
2022-11-30T21:30:34.305Z,34.90
2022-11-30T21:33:00.587Z,35.50
2022-11-30T21:35:26.999Z,32.83
2022-11-30T21:37:53.546Z,34.10
2022-11-30T21:40:19.836Z,34.42
2022-11-30T21:42:46.112Z,33.95
2022-11-30T21:45:12.493Z,35.47
2022-11-30T21:47:38.865Z,33.83
2022-11-30T21:50:05.201Z,34.63
2022-11-30T21:52:31.608Z,34.22
2022-11-30T21:54:57.948Z,32.40
2022-11-30T21:57:24.379Z,33.67
2022-11-30T21:59:50.889Z,34.05
2022-11-30T22:02:17.439Z,34.03
2022-11-30T22:04:44.172Z,33.55
2022-11-30T22:07:10.456Z,32.53
2022-11-30T22:09:36.743Z,33.38
2022-11-30T22:12:03.245Z,35.03
2022-11-30T22:14:29.776Z,34.17
2022-11-30T22:16:56.153Z,35.03
2022-11-30T22:19:22.472Z,33.72
2022-11-30T22:21:50.419Z,32.78
2022-11-30T22:24:16.930Z,33.50
2022-11-30T22:26:43.295Z,34.72
2022-11-30T22:29:09.745Z,32.88
2022-11-30T22:31:36.144Z,33.67
2022-11-30T22:34:02.492Z,31.65
2022-11-30T22:36:28.882Z,33.47
2022-11-30T22:38:55.228Z,33.00
2022-11-30T22:41:21.552Z,33.40
2022-11-30T22:43:47.871Z,33.75
2022-11-30T22:46:14.221Z,31.73
2022-11-30T22:48:40.612Z,33.13
2022-11-30T22:51:07.047Z,32.38
2022-11-30T22:53:33.619Z,32.65
2022-11-30T22:56:00.074Z,34.33
2022-11-30T22:58:26.624Z,33.08
2022-11-30T23:00:53.062Z,32.95
2022-11-30T23:03:19.688Z,32.78
2022-11-30T23:05:46.105Z,33.90
2022-11-30T23:08:12.770Z,32.83
2022-11-30T23:10:39.425Z,32.15
2022-11-30T23:13:05.874Z,32.60
2022-11-30T23:15:32.404Z,32.80
2022-11-30T23:17:58.987Z,30.75
2022-11-30T23:20:25.323Z,33.42
2022-11-30T23:22:51.648Z,34.72
2022-11-30T23:25:18.082Z,31.00
2022-11-30T23:27:44.394Z,31.52
2022-11-30T23:30:10.831Z,33.10
2022-11-30T23:32:37.198Z,32.80
2022-11-30T23:35:03.709Z,32.63
2022-11-30T23:37:30.187Z,31.20
2022-11-30T23:39:56.474Z,33.00
2022-11-30T23:42:22.780Z,32.42
2022-11-30T23:44:49.100Z,32.30
2022-11-30T23:47:18.492Z,32.05
2022-11-30T23:49:45.183Z,32.27
2022-11-30T23:52:11.728Z,30.60
2022-11-30T23:54:38.196Z,30.63
2022-11-30T23:57:04.705Z,31.15
2022-11-30T23:59:31.245Z,30.92
